sensor_id;sensor_type;location;lat;lon;timestamp;pressure;altitude;pressure_sealevel;temperature;humidity
73974;BME280;62336;-26.094;27.994;2022-11-20T00:01:58;84787.54;;;31.68;12.60
73974;BME280;62336;-26.094;27.994;2022-11-20T00:04:24;84786.58;;;31.22;12.45
73974;BME280;62336;-26.094;27.994;2022-11-20T00:06:49;84788.79;;;31.64;12.40
73974;BME280;62336;-26.094;27.994;2022-11-20T00:09:15;84787.24;;;32.08;12.26
73974;BME280;62336;-26.094;27.994;2022-11-20T00:11:40;84788.86;;;31.82;12.10
73974;BME280;62336;-26.094;27.994;2022-11-20T00:14:05;84793.98;;;31.64;12.10
73974;BME280;62336;-26.094;27.994;2022-11-20T00:16:32;84793.02;;;31.68;12.17
73974;BME280;62336;-26.094;27.994;2022-11-20T01:51:38;84809.18;;;12.36;38.42
73974;BME280;62336;-26.094;27.994;2022-11-20T01:54:02;84806.17;;;16.03;30.79
73974;BME280;62336;-26.094;27.994;2022-11-20T01:56:38;84798.11;;;19.58;25.97
73974;BME280;62336;-26.094;27.994;2022-11-20T01:58:52;84798.77;;;21.89;21.92
73974;BME280;62336;-26.094;27.994;2022-11-20T02:01:19;84796.58;;;23.75;19.94
73974;BME280;62336;-26.094;27.994;2022-11-20T02:03:40;84794.86;;;25.00;18.03
73974;BME280;62336;-26.094;27.994;2022-11-20T02:06:11;84797.68;;;26.54;16.59
73974;BME280;62336;-26.094;27.994;2022-11-20T02:08:29;84797.66;;;26.98;15.70
73974;BME280;62336;-26.094;27.994;2022-11-20T02:10:57;84798.33;;;27.93;14.79
73974;BME280;62336;-26.094;27.994;2022-11-20T02:13:20;84796.94;;;28.33;14.41
73974;BME280;62336;-26.094;27.994;2022-11-20T02:15:45;84799.27;;;28.86;14.11
73974;BME280;62336;-26.094;27.994;2022-11-20T02:18:11;84801.01;;;28.65;14.28
73974;BME280;62336;-26.094;27.994;2022-11-20T02:20:35;84804.91;;;29.16;14.04
73974;BME280;62336;-26.094;27.994;2022-11-20T02:23:02;84809.89;;;29.13;13.46
73974;BME280;62336;-26.094;27.994;2022-11-20T02:25:43;84812.40;;;29.57;13.52
73974;BME280;62336;-26.094;27.994;2022-11-20T02:28:06;84813.00;;;29.57;13.11
73974;BME280;62336;-26.094;27.994;2022-11-20T02:30:31;84814.60;;;29.50;13.23
73974;BME280;62336;-26.094;27.994;2022-11-20T02:32:58;84809.81;;;29.69;13.10
73974;BME280;62336;-26.094;27.994;2022-11-20T02:35:39;84809.96;;;29.68;13.34
73974;BME280;62336;-26.094;27.994;2022-11-20T02:37:50;84813.35;;;29.69;13.08
73974;BME280;62336;-26.094;27.994;2022-11-20T02:40:13;84814.48;;;29.72;13.29
73974;BME280;62336;-26.094;27.994;2022-11-20T02:42:37;84813.73;;;29.56;12.82
73974;BME280;62336;-26.094;27.994;2022-11-20T02:45:03;84821.70;;;29.43;12.86
73974;BME280;62336;-26.094;27.994;2022-11-20T02:47:28;84822.23;;;29.49;12.96
73974;BME280;62336;-26.094;27.994;2022-11-20T02:49:52;84825.20;;;29.56;12.18
73974;BME280;62336;-26.094;27.994;2022-11-20T02:52:18;84829.63;;;29.52;12.55
73974;BME280;62336;-26.094;27.994;2022-11-20T02:54:42;84833.47;;;29.27;12.45
73974;BME280;62336;-26.094;27.994;2022-11-20T02:57:07;84830.36;;;29.31;12.83
73974;BME280;62336;-26.094;27.994;2022-11-20T02:59:32;84835.00;;;29.78;12.71
73974;BME280;62336;-26.094;27.994;2022-11-20T03:01:57;84836.79;;;29.63;12.39
73974;BME280;62336;-26.094;27.994;2022-11-20T03:04:22;84836.95;;;29.23;12.47
73974;BME280;62336;-26.094;27.994;2022-11-20T03:06:47;84838.60;;;29.55;12.18
73974;BME280;62336;-26.094;27.994;2022-11-20T03:09:13;84837.92;;;29.40;12.38
73974;BME280;62336;-26.094;27.994;2022-11-20T03:11:38;84837.69;;;29.00;12.08
73974;BME280;62336;-26.094;27.994;2022-11-20T03:14:04;84843.89;;;29.32;12.01
73974;BME280;62336;-26.094;27.994;2022-11-20T03:16:31;84842.34;;;29.13;12.69
73974;BME280;62336;-26.094;27.994;2022-11-20T03:18:55;84850.69;;;29.13;11.83
73974;BME280;62336;-26.094;27.994;2022-11-20T03:21:21;84853.84;;;29.30;11.72
73974;BME280;62336;-26.094;27.994;2022-11-20T03:23:46;84848.70;;;28.74;11.85
73974;BME280;62336;-26.094;27.994;2022-11-20T03:26:14;84851.37;;;29.11;12.10
73974;BME280;62336;-26.094;27.994;2022-11-20T03:28:37;84853.18;;;28.97;11.79
73974;BME280;62336;-26.094;27.994;2022-11-20T03:31:07;84855.74;;;29.01;11.98
73974;BME280;62336;-26.094;27.994;2022-11-20T03:33:29;84850.42;;;29.20;12.05
73974;BME280;62336;-26.094;27.994;2022-11-20T03:35:52;84852.15;;;29.43;12.13
73974;BME280;62336;-26.094;27.994;2022-11-20T03:38:18;84857.61;;;29.09;12.30
73974;BME280;62336;-26.094;27.994;2022-11-20T03:40:42;84856.52;;;28.98;12.08
73974;BME280;62336;-26.094;27.994;2022-11-20T03:43:10;84859.32;;;29.09;11.99
73974;BME280;62336;-26.094;27.994;2022-11-20T03:45:34;84860.88;;;29.37;11.96
73974;BME280;62336;-26.094;27.994;2022-11-20T03:47:59;84862.11;;;29.40;12.09
73974;BME280;62336;-26.094;27.994;2022-11-20T03:50:25;84863.14;;;29.55;12.02
73974;BME280;62336;-26.094;27.994;2022-11-20T03:52:50;84867.07;;;29.32;11.97
73974;BME280;62336;-26.094;27.994;2022-11-20T03:55:15;84873.43;;;29.58;12.05
73974;BME280;62336;-26.094;27.994;2022-11-20T03:57:40;84872.92;;;29.57;12.10
73974;BME280;62336;-26.094;27.994;2022-11-20T04:00:07;84865.74;;;29.44;11.92
73974;BME280;62336;-26.094;27.994;2022-11-20T04:02:30;84865.94;;;29.48;12.12
73974;BME280;62336;-26.094;27.994;2022-11-20T04:04:55;84875.60;;;29.11;11.85
73974;BME280;62336;-26.094;27.994;2022-11-20T04:07:21;84880.49;;;29.09;11.63
73974;BME280;62336;-26.094;27.994;2022-11-20T04:09:46;84882.27;;;29.47;11.82
73974;BME280;62336;-26.094;27.994;2022-11-20T04:12:11;84883.51;;;29.19;12.04
73974;BME280;62336;-26.094;27.994;2022-11-20T04:14:36;84880.65;;;29.48;11.81
73974;BME280;62336;-26.094;27.994;2022-11-20T04:17:01;84883.98;;;29.27;11.63
73974;BME280;62336;-26.094;27.994;2022-11-20T04:19:27;84885.45;;;29.51;11.62
73974;BME280;62336;-26.094;27.994;2022-11-20T04:21:51;84888.78;;;29.76;11.25
73974;BME280;62336;-26.094;27.994;2022-11-20T04:24:17;84894.43;;;29.91;11.26
73974;BME280;62336;-26.094;27.994;2022-11-20T04:26:41;84899.55;;;29.92;11.34
73974;BME280;62336;-26.094;27.994;2022-11-20T04:29:09;84913.86;;;30.03;11.09
73974;BME280;62336;-26.094;27.994;2022-11-20T04:31:33;84918.63;;;30.30;11.06
73974;BME280;62336;-26.094;27.994;2022-11-20T04:34:00;84919.52;;;30.01;11.03
73974;BME280;62336;-26.094;27.994;2022-11-20T04:36:24;84922.73;;;29.78;11.16
73974;BME280;62336;-26.094;27.994;2022-11-20T04:38:51;84923.27;;;29.71;11.31
73974;BME280;62336;-26.094;27.994;2022-11-20T04:41:16;84918.13;;;29.78;11.06
73974;BME280;62336;-26.094;27.994;2022-11-20T04:43:37;84922.37;;;29.56;10.93
73974;BME280;62336;-26.094;27.994;2022-11-20T04:46:03;84925.37;;;29.64;10.45
73974;BME280;62336;-26.094;27.994;2022-11-20T04:48:29;84924.20;;;29.70;10.81
73974;BME280;62336;-26.094;27.994;2022-11-20T04:50:55;84922.65;;;29.93;10.66
73974;BME280;62336;-26.094;27.994;2022-11-20T04:53:20;84923.81;;;29.93;10.59
73974;BME280;62336;-26.094;27.994;2022-11-20T04:55:44;84927.58;;;29.96;10.87
73974;BME280;62336;-26.094;27.994;2022-11-20T04:58:12;84929.85;;;29.97;10.83
73974;BME280;62336;-26.094;27.994;2022-11-20T05:00:35;84935.81;;;29.96;10.90
73974;BME280;62336;-26.094;27.994;2022-11-20T05:03:00;84941.03;;;30.20;10.93
73974;BME280;62336;-26.094;27.994;2022-11-20T05:05:26;84939.31;;;30.30;10.62
73974;BME280;62336;-26.094;27.994;2022-11-20T05:07:50;84940.25;;;30.34;11.10
73974;BME280;62336;-26.094;27.994;2022-11-20T05:10:17;84939.39;;;30.30;10.93
73974;BME280;62336;-26.094;27.994;2022-11-20T05:12:41;84945.53;;;30.03;10.95
73974;BME280;62336;-26.094;27.994;2022-11-20T05:15:07;84946.36;;;29.73;11.10
73974;BME280;62336;-26.094;27.994;2022-11-20T05:17:31;84948.87;;;30.04;11.24
73974;BME280;62336;-26.094;27.994;2022-11-20T05:19:56;84950.44;;;29.44;11.13
73974;BME280;62336;-26.094;27.994;2022-11-20T05:22:21;84950.79;;;29.86;11.07
73974;BME280;62336;-26.094;27.994;2022-11-20T05:24:46;84959.95;;;30.50;10.64
73974;BME280;62336;-26.094;27.994;2022-11-20T05:27:11;84959.40;;;30.25;10.97
73974;BME280;62336;-26.094;27.994;2022-11-20T05:29:36;84958.40;;;30.63;10.80
73974;BME280;62336;-26.094;27.994;2022-11-20T05:32:01;84959.87;;;30.54;10.43
73974;BME280;62336;-26.094;27.994;2022-11-20T05:34:26;84958.98;;;30.81;10.81
73974;BME280;62336;-26.094;27.994;2022-11-20T05:36:51;84959.53;;;30.52;10.80
73974;BME280;62336;-26.094;27.994;2022-11-20T05:39:17;84967.91;;;30.82;10.88
73974;BME280;62336;-26.094;27.994;2022-11-20T05:41:42;84972.41;;;30.95;10.98
73974;BME280;62336;-26.094;27.994;2022-11-20T05:44:09;84975.30;;;30.87;10.99
73974;BME280;62336;-26.094;27.994;2022-11-20T05:46:32;84976.23;;;31.00;10.84
73974;BME280;62336;-26.094;27.994;2022-11-20T05:48:58;84977.84;;;31.23;10.34
73974;BME280;62336;-26.094;27.994;2022-11-20T05:51:22;84978.69;;;31.45;10.27
73974;BME280;62336;-26.094;27.994;2022-11-20T05:53:47;84979.40;;;31.16;10.35
73974;BME280;62336;-26.094;27.994;2022-11-20T05:56:14;84975.72;;;31.87;10.13
73974;BME280;62336;-26.094;27.994;2022-11-20T05:58:38;84974.36;;;32.09;10.72
73974;BME280;62336;-26.094;27.994;2022-11-20T06:01:06;84978.16;;;32.22;10.59
73974;BME280;62336;-26.094;27.994;2022-11-20T06:03:27;84974.80;;;32.15;10.00
73974;BME280;62336;-26.094;27.994;2022-11-20T06:05:52;84969.95;;;32.12;9.53
73974;BME280;62336;-26.094;27.994;2022-11-20T06:08:18;84971.23;;;31.85;9.83
73974;BME280;62336;-26.094;27.994;2022-11-20T06:10:44;84967.21;;;32.08;10.00
73974;BME280;62336;-26.094;27.994;2022-11-20T06:13:10;84963.33;;;31.83;10.28
73974;BME280;62336;-26.094;27.994;2022-11-20T06:15:35;84961.56;;;32.14;9.97
73974;BME280;62336;-26.094;27.994;2022-11-20T06:18:01;84966.02;;;32.54;9.23
73974;BME280;62336;-26.094;27.994;2022-11-20T06:20:26;84971.21;;;31.87;9.58
73974;BME280;62336;-26.094;27.994;2022-11-20T06:22:52;84982.35;;;32.37;9.97
73974;BME280;62336;-26.094;27.994;2022-11-20T06:25:18;84985.74;;;32.53;9.74
73974;BME280;62336;-26.094;27.994;2022-11-20T06:27:43;84986.18;;;32.61;9.25
73974;BME280;62336;-26.094;27.994;2022-11-20T06:30:10;84985.74;;;32.69;8.94
73974;BME280;62336;-26.094;27.994;2022-11-20T06:32:37;84987.95;;;32.75;8.33
73974;BME280;62336;-26.094;27.994;2022-11-20T06:35:00;84985.41;;;32.58;8.71
73974;BME280;62336;-26.094;27.994;2022-11-20T06:37:26;84978.90;;;33.31;8.92
73974;BME280;62336;-26.094;27.994;2022-11-20T06:39:52;84972.49;;;33.26;8.48
73974;BME280;62336;-26.094;27.994;2022-11-20T06:42:18;84976.87;;;32.96;8.70
73974;BME280;62336;-26.094;27.994;2022-11-20T06:44:43;84984.93;;;33.37;8.41
73974;BME280;62336;-26.094;27.994;2022-11-20T06:47:09;84979.64;;;33.27;8.91
73974;BME280;62336;-26.094;27.994;2022-11-20T06:49:35;84978.46;;;33.41;8.88
73974;BME280;62336;-26.094;27.994;2022-11-20T06:52:01;84973.55;;;33.51;8.86
73974;BME280;62336;-26.094;27.994;2022-11-20T06:54:26;84982.22;;;33.23;8.81
73974;BME280;62336;-26.094;27.994;2022-11-20T06:56:51;84977.25;;;33.15;8.22
73974;BME280;62336;-26.094;27.994;2022-11-20T06:59:17;84982.36;;;33.06;8.78
73974;BME280;62336;-26.094;27.994;2022-11-20T07:01:42;84988.23;;;33.22;8.66
73974;BME280;62336;-26.094;27.994;2022-11-20T07:04:08;84991.79;;;33.48;8.93
73974;BME280;62336;-26.094;27.994;2022-11-20T07:06:33;84990.48;;;33.18;8.98
73974;BME280;62336;-26.094;27.994;2022-11-20T07:08:58;84988.28;;;33.62;8.77
73974;BME280;62336;-26.094;27.994;2022-11-20T07:11:24;84982.37;;;33.36;8.98
73974;BME280;62336;-26.094;27.994;2022-11-20T07:13:50;84979.99;;;33.96;9.09
73974;BME280;62336;-26.094;27.994;2022-11-20T07:16:16;84977.70;;;34.44;9.52
73974;BME280;62336;-26.094;27.994;2022-11-20T07:18:40;84977.26;;;34.41;8.96
73974;BME280;62336;-26.094;27.994;2022-11-20T07:21:08;84980.37;;;34.01;8.67
73974;BME280;62336;-26.094;27.994;2022-11-20T07:23:32;84977.77;;;34.21;8.75
73974;BME280;62336;-26.094;27.994;2022-11-20T07:25:58;84977.76;;;34.43;8.07
73974;BME280;62336;-26.094;27.994;2022-11-20T07:28:24;84980.69;;;34.10;7.92
73974;BME280;62336;-26.094;27.994;2022-11-20T07:30:51;84978.76;;;34.57;8.54
73974;BME280;62336;-26.094;27.994;2022-11-20T07:33:16;84975.06;;;34.31;7.88
73974;BME280;62336;-26.094;27.994;2022-11-20T07:35:41;84974.13;;;34.64;7.86
73974;BME280;62336;-26.094;27.994;2022-11-20T07:38:07;84976.44;;;34.71;8.53
73974;BME280;62336;-26.094;27.994;2022-11-20T07:40:32;84978.21;;;34.76;8.03
73974;BME280;62336;-26.094;27.994;2022-11-20T07:42:58;84972.44;;;34.98;8.07
73974;BME280;62336;-26.094;27.994;2022-11-20T07:45:24;84973.93;;;35.56;7.84
73974;BME280;62336;-26.094;27.994;2022-11-20T07:47:50;84971.13;;;35.49;8.74
73974;BME280;62336;-26.094;27.994;2022-11-20T07:50:16;84967.12;;;35.57;7.99
73974;BME280;62336;-26.094;27.994;2022-11-20T07:52:40;84969.58;;;35.29;8.94
73974;BME280;62336;-26.094;27.994;2022-11-20T07:55:06;84963.03;;;35.65;7.97
73974;BME280;62336;-26.094;27.994;2022-11-20T07:57:30;84959.15;;;35.79;8.30
73974;BME280;62336;-26.094;27.994;2022-11-20T07:59:56;84957.07;;;35.52;8.04
73974;BME280;62336;-26.094;27.994;2022-11-20T08:02:21;84959.70;;;35.51;7.80
73974;BME280;62336;-26.094;27.994;2022-11-20T08:04:46;84956.83;;;35.64;7.11
73974;BME280;62336;-26.094;27.994;2022-11-20T08:07:12;84958.11;;;35.91;7.00
73974;BME280;62336;-26.094;27.994;2022-11-20T08:09:37;84951.84;;;36.21;6.73
73974;BME280;62336;-26.094;27.994;2022-11-20T08:12:02;84951.28;;;36.17;6.80
73974;BME280;62336;-26.094;27.994;2022-11-20T08:14:27;84948.52;;;36.12;7.36
73974;BME280;62336;-26.094;27.994;2022-11-20T08:16:53;84944.97;;;35.99;7.47
73974;BME280;62336;-26.094;27.994;2022-11-20T08:19:18;84943.64;;;36.52;7.33
73974;BME280;62336;-26.094;27.994;2022-11-20T08:21:43;84946.62;;;36.76;6.89
73974;BME280;62336;-26.094;27.994;2022-11-20T08:24:08;84944.36;;;36.61;7.21
73974;BME280;62336;-26.094;27.994;2022-11-20T08:26:34;84942.50;;;36.55;7.21
73974;BME280;62336;-26.094;27.994;2022-11-20T08:29:00;84940.68;;;36.64;6.20
73974;BME280;62336;-26.094;27.994;2022-11-20T08:31:27;84938.59;;;36.53;5.95
73974;BME280;62336;-26.094;27.994;2022-11-20T08:33:52;84938.73;;;37.04;6.05
73974;BME280;62336;-26.094;27.994;2022-11-20T08:36:18;84938.62;;;36.81;5.86
73974;BME280;62336;-26.094;27.994;2022-11-20T08:38:46;84936.61;;;36.45;5.45
73974;BME280;62336;-26.094;27.994;2022-11-20T08:41:08;84939.71;;;36.33;5.75
73974;BME280;62336;-26.094;27.994;2022-11-20T08:43:34;84935.17;;;36.36;5.97
73974;BME280;62336;-26.094;27.994;2022-11-20T08:45:59;84931.37;;;36.59;8.02
73974;BME280;62336;-26.094;27.994;2022-11-20T08:48:24;84935.36;;;36.62;6.78
73974;BME280;62336;-26.094;27.994;2022-11-20T08:50:49;84932.08;;;36.77;5.17
73974;BME280;62336;-26.094;27.994;2022-11-20T08:53:14;84930.34;;;36.61;6.07
73974;BME280;62336;-26.094;27.994;2022-11-20T08:55:40;84929.27;;;36.90;6.39
73974;BME280;62336;-26.094;27.994;2022-11-20T08:58:06;84923.56;;;37.22;7.54
73974;BME280;62336;-26.094;27.994;2022-11-20T09:00:31;84927.33;;;37.01;7.52
73974;BME280;62336;-26.094;27.994;2022-11-20T09:02:56;84928.69;;;37.45;7.20
73974;BME280;62336;-26.094;27.994;2022-11-20T09:05:21;84929.98;;;37.64;6.65
73974;BME280;62336;-26.094;27.994;2022-11-20T09:07:46;84928.88;;;37.59;5.37
73974;BME280;62336;-26.094;27.994;2022-11-20T09:10:11;84926.19;;;37.94;5.02
73974;BME280;62336;-26.094;27.994;2022-11-20T09:12:36;84917.89;;;36.88;4.74
73974;BME280;62336;-26.094;27.994;2022-11-20T09:15:01;84913.78;;;37.09;6.15
73974;BME280;62336;-26.094;27.994;2022-11-20T09:17:26;84916.08;;;37.40;6.62
73974;BME280;62336;-26.094;27.994;2022-11-20T09:19:51;84910.81;;;38.30;5.95
73974;BME280;62336;-26.094;27.994;2022-11-20T09:22:17;84907.20;;;38.17;5.64
73974;BME280;62336;-26.094;27.994;2022-11-20T09:24:41;84905.29;;;38.07;5.00
73974;BME280;62336;-26.094;27.994;2022-11-20T09:27:07;84906.85;;;38.61;5.06
73974;BME280;62336;-26.094;27.994;2022-11-20T09:29:33;84904.32;;;38.99;5.00
73974;BME280;62336;-26.094;27.994;2022-11-20T09:31:57;84899.55;;;38.71;5.12
73974;BME280;62336;-26.094;27.994;2022-11-20T09:34:23;84895.26;;;38.32;4.20
73974;BME280;62336;-26.094;27.994;2022-11-20T09:36:47;84889.20;;;38.09;4.83
73974;BME280;62336;-26.094;27.994;2022-11-20T09:39:13;84891.80;;;38.13;4.36
73974;BME280;62336;-26.094;27.994;2022-11-20T09:41:56;84890.45;;;37.71;4.35
73974;BME280;62336;-26.094;27.994;2022-11-20T09:44:12;84889.29;;;39.14;4.66
73974;BME280;62336;-26.094;27.994;2022-11-20T09:46:35;84889.33;;;38.89;3.32
73974;BME280;62336;-26.094;27.994;2022-11-20T09:49:04;84883.40;;;38.69;3.36
73974;BME280;62336;-26.094;27.994;2022-11-20T09:51:30;84886.36;;;39.10;4.65
73974;BME280;62336;-26.094;27.994;2022-11-20T09:53:55;84884.89;;;39.02;4.09
73974;BME280;62336;-26.094;27.994;2022-11-20T09:56:11;84885.71;;;38.82;5.82
73974;BME280;62336;-26.094;27.994;2022-11-20T09:58:40;84882.40;;;38.87;4.56
73974;BME280;62336;-26.094;27.994;2022-11-20T10:01:05;84879.99;;;38.85;5.04
73974;BME280;62336;-26.094;27.994;2022-11-20T10:03:32;84882.09;;;38.89;4.37
73974;BME280;62336;-26.094;27.994;2022-11-20T10:05:52;84875.56;;;38.84;3.96
73974;BME280;62336;-26.094;27.994;2022-11-20T10:08:20;84873.59;;;38.82;4.45
73974;BME280;62336;-26.094;27.994;2022-11-20T10:10:43;84870.75;;;38.71;4.55
73974;BME280;62336;-26.094;27.994;2022-11-20T10:13:17;84870.90;;;38.66;5.34
73974;BME280;62336;-26.094;27.994;2022-11-20T10:15:36;84867.14;;;38.38;6.12
73974;BME280;62336;-26.094;27.994;2022-11-20T10:18:03;84866.11;;;38.75;5.31
73974;BME280;62336;-26.094;27.994;2022-11-20T10:20:33;84859.04;;;38.52;5.03
73974;BME280;62336;-26.094;27.994;2022-11-20T10:22:55;84862.23;;;38.86;5.89
73974;BME280;62336;-26.094;27.994;2022-11-20T10:25:15;84859.28;;;39.20;5.26
73974;BME280;62336;-26.094;27.994;2022-11-20T10:27:52;84858.89;;;38.45;4.75
73974;BME280;62336;-26.094;27.994;2022-11-20T10:30:02;84857.66;;;39.02;5.30
73974;BME280;62336;-26.094;27.994;2022-11-20T10:32:30;84855.78;;;38.94;4.05
73974;BME280;62336;-26.094;27.994;2022-11-20T10:34:54;84851.08;;;39.72;5.50
73974;BME280;62336;-26.094;27.994;2022-11-20T10:37:21;84853.33;;;39.26;3.85
73974;BME280;62336;-26.094;27.994;2022-11-20T10:39:47;84849.23;;;39.60;3.78
73974;BME280;62336;-26.094;27.994;2022-11-20T10:42:10;84848.65;;;39.21;3.96
73974;BME280;62336;-26.094;27.994;2022-11-20T10:44:31;84846.78;;;39.67;4.04
73974;BME280;62336;-26.094;27.994;2022-11-20T10:46:56;84845.33;;;40.19;3.78
73974;BME280;62336;-26.094;27.994;2022-11-20T10:49:21;84842.24;;;39.53;4.19
73974;BME280;62336;-26.094;27.994;2022-11-20T10:51:57;84841.62;;;39.15;3.92
73974;BME280;62336;-26.094;27.994;2022-11-20T10:54:18;84840.35;;;39.77;3.57
73974;BME280;62336;-26.094;27.994;2022-11-20T10:56:39;84834.12;;;39.93;3.91
73974;BME280;62336;-26.094;27.994;2022-11-20T11:01:26;84831.00;;;38.90;3.47
73974;BME280;62336;-26.094;27.994;2022-11-20T11:03:52;84829.55;;;38.22;3.49
73974;BME280;62336;-26.094;27.994;2022-11-20T11:06:21;84826.56;;;38.74;4.29
73974;BME280;62336;-26.094;27.994;2022-11-20T11:08:42;84818.75;;;39.02;4.61
73974;BME280;62336;-26.094;27.994;2022-11-20T11:11:18;84818.24;;;38.72;4.16
73974;BME280;62336;-26.094;27.994;2022-11-20T11:13:31;84814.76;;;39.43;3.65
73974;BME280;62336;-26.094;27.994;2022-11-20T11:15:57;84827.20;;;39.64;5.71
73974;BME280;62336;-26.094;27.994;2022-11-20T11:18:26;84821.94;;;39.85;4.07
73974;BME280;62336;-26.094;27.994;2022-11-20T11:20:51;84814.77;;;39.45;4.29
73974;BME280;62336;-26.094;27.994;2022-11-20T11:25:37;84807.36;;;39.43;3.91
73974;BME280;62336;-26.094;27.994;2022-11-20T11:28:04;84802.97;;;38.99;4.09
73974;BME280;62336;-26.094;27.994;2022-11-20T11:30:29;84796.21;;;39.79;5.43
73974;BME280;62336;-26.094;27.994;2022-11-20T11:33:03;84791.85;;;39.76;3.99
73974;BME280;62336;-26.094;27.994;2022-11-20T11:35:24;84790.32;;;40.03;3.81
73974;BME280;62336;-26.094;27.994;2022-11-20T11:37:43;84788.13;;;39.84;4.18
73974;BME280;62336;-26.094;27.994;2022-11-20T11:40:11;84793.07;;;39.75;3.70
73974;BME280;62336;-26.094;27.994;2022-11-20T11:42:32;84784.44;;;40.62;3.11
73974;BME280;62336;-26.094;27.994;2022-11-20T11:44:59;84774.69;;;39.38;3.09
73974;BME280;62336;-26.094;27.994;2022-11-20T11:47:24;84768.76;;;39.82;4.00
73974;BME280;62336;-26.094;27.994;2022-11-20T11:49:47;84766.28;;;39.80;4.27
73974;BME280;62336;-26.094;27.994;2022-11-20T11:52:16;84766.53;;;39.98;3.97
73974;BME280;62336;-26.094;27.994;2022-11-20T11:54:43;84765.72;;;39.78;3.80
73974;BME280;62336;-26.094;27.994;2022-11-20T11:57:09;84766.05;;;40.10;4.51
73974;BME280;62336;-26.094;27.994;2022-11-20T11:59:41;84757.80;;;40.19;4.85
73974;BME280;62336;-26.094;27.994;2022-11-20T12:01:56;84757.21;;;40.61;4.07
73974;BME280;62336;-26.094;27.994;2022-11-20T12:04:36;84755.23;;;40.21;3.48
73974;BME280;62336;-26.094;27.994;2022-11-20T12:06:45;84752.04;;;40.28;3.52
73974;BME280;62336;-26.094;27.994;2022-11-20T12:09:10;84748.84;;;40.05;3.35
73974;BME280;62336;-26.094;27.994;2022-11-20T12:11:38;84742.95;;;39.94;3.61
73974;BME280;62336;-26.094;27.994;2022-11-20T12:14:01;84743.67;;;40.33;3.95
73974;BME280;62336;-26.094;27.994;2022-11-20T12:16:23;84740.61;;;40.35;3.33
73974;BME280;62336;-26.094;27.994;2022-11-20T12:18:50;84742.68;;;40.61;2.85
73974;BME280;62336;-26.094;27.994;2022-11-20T12:21:23;84739.02;;;39.85;2.41
73974;BME280;62336;-26.094;27.994;2022-11-20T12:23:46;84738.23;;;40.09;3.25
73974;BME280;62336;-26.094;27.994;2022-11-20T12:26:10;84734.29;;;39.95;2.81
73974;BME280;62336;-26.094;27.994;2022-11-20T12:28:39;84735.32;;;40.38;3.64
73974;BME280;62336;-26.094;27.994;2022-11-20T12:31:08;84731.02;;;39.80;2.71
73974;BME280;62336;-26.094;27.994;2022-11-20T12:33:30;84730.33;;;39.94;3.24
73974;BME280;62336;-26.094;27.994;2022-11-20T12:35:55;84731.16;;;40.09;3.35
73974;BME280;62336;-26.094;27.994;2022-11-20T12:40:40;84725.72;;;39.61;2.97
73974;BME280;62336;-26.094;27.994;2022-11-20T12:43:10;84719.99;;;39.80;2.99
73974;BME280;62336;-26.094;27.994;2022-11-20T12:45:39;84728.69;;;40.55;4.97
73974;BME280;62336;-26.094;27.994;2022-11-20T12:50:22;84717.78;;;40.68;3.53
73974;BME280;62336;-26.094;27.994;2022-11-20T12:52:46;84713.94;;;40.56;3.19
73974;BME280;62336;-26.094;27.994;2022-11-20T12:55:15;84716.88;;;40.96;2.62
73974;BME280;62336;-26.094;27.994;2022-11-20T12:57:35;84713.34;;;40.59;2.88
73974;BME280;62336;-26.094;27.994;2022-11-20T13:00:10;84705.80;;;40.71;3.24
73974;BME280;62336;-26.094;27.994;2022-11-20T13:02:33;84703.88;;;40.54;3.09
73974;BME280;62336;-26.094;27.994;2022-11-20T13:04:58;84699.82;;;40.83;2.78
73974;BME280;62336;-26.094;27.994;2022-11-20T13:07:13;84695.31;;;41.20;3.09
73974;BME280;62336;-26.094;27.994;2022-11-20T13:09:42;84693.72;;;41.02;4.02
73974;BME280;62336;-26.094;27.994;2022-11-20T13:12:04;84697.99;;;41.30;4.13
73974;BME280;62336;-26.094;27.994;2022-11-20T13:14:33;84699.35;;;41.35;4.09
73974;BME280;62336;-26.094;27.994;2022-11-20T13:16:54;84696.75;;;40.63;3.46
73974;BME280;62336;-26.094;27.994;2022-11-20T13:19:18;84700.65;;;41.64;2.96
73974;BME280;62336;-26.094;27.994;2022-11-20T13:21:43;84699.63;;;40.97;2.77
73974;BME280;62336;-26.094;27.994;2022-11-20T13:24:07;84694.91;;;40.35;2.98
73974;BME280;62336;-26.094;27.994;2022-11-20T13:26:31;84691.02;;;40.95;3.19
73974;BME280;62336;-26.094;27.994;2022-11-20T13:29:02;84687.26;;;40.80;3.17
73974;BME280;62336;-26.094;27.994;2022-11-20T13:31:31;84683.87;;;41.15;2.97
73974;BME280;62336;-26.094;27.994;2022-11-20T13:33:51;84685.34;;;41.04;3.05
73974;BME280;62336;-26.094;27.994;2022-11-20T13:36:20;84685.31;;;40.44;2.93
73974;BME280;62336;-26.094;27.994;2022-11-20T13:38:43;84690.75;;;40.46;3.52
73974;BME280;62336;-26.094;27.994;2022-11-20T13:41:01;84686.55;;;41.02;3.25
73974;BME280;62336;-26.094;27.994;2022-11-20T13:43:35;84690.74;;;40.35;3.07
73974;BME280;62336;-26.094;27.994;2022-11-20T13:45:58;84689.15;;;39.92;2.96
73974;BME280;62336;-26.094;27.994;2022-11-20T13:48:21;84686.98;;;40.05;3.41
73974;BME280;62336;-26.094;27.994;2022-11-20T13:50:49;84689.41;;;40.36;2.79
73974;BME280;62336;-26.094;27.994;2022-11-20T13:53:18;84685.14;;;40.01;3.15
73974;BME280;62336;-26.094;27.994;2022-11-20T13:55:38;84683.48;;;40.15;3.13
73974;BME280;62336;-26.094;27.994;2022-11-20T13:58:20;84683.98;;;40.02;4.60
73974;BME280;62336;-26.094;27.994;2022-11-20T14:00:23;84684.76;;;40.39;4.88
73974;BME280;62336;-26.094;27.994;2022-11-20T14:05:21;84673.09;;;40.48;3.80
73974;BME280;62336;-26.094;27.994;2022-11-20T14:07:39;84674.67;;;40.21;4.47
73974;BME280;62336;-26.094;27.994;2022-11-20T14:10:03;84671.32;;;39.93;4.22
73974;BME280;62336;-26.094;27.994;2022-11-20T14:12:30;84671.78;;;39.96;4.82
73974;BME280;62336;-26.094;27.994;2022-11-20T14:14:54;84670.68;;;39.61;5.00
73974;BME280;62336;-26.094;27.994;2022-11-20T14:17:20;84670.94;;;39.85;4.80
73974;BME280;62336;-26.094;27.994;2022-11-20T14:19:45;84669.60;;;39.73;4.37